CheckWX is a tool to help pilots better visualize weather data.  It is not intended as a substitute for an official pre-flight weather briefing.

21:40:53 UTC

LTDA METAR
Hatay Airport
Hatay, Turkey
Current

51 mins ago

LTDA 082050Z 25010KT 210V310 9999 FEW035 16/09 Q1014 NOSIG
Observed
Apr-8 @ 20:50 UTC
Wind
  • 250° at 10 KTS
Visibility
10,000+ meters
Flight Rules
VFR
Cloud Levels
  • Few at 3,500' AGL
Temperature
16°C / 61°F
Dewpoint
C / 48°F
Humidity
63%
Altimeter
29.94" Hg
Pressure
1013.92 hPa
Previous

2 hours ago

LTDA 081950Z 26006KT 9999 FEW035 14/10 Q1014 NOSIG
Observed
Apr-8 @ 19:50 UTC
Wind
  • 260° at 6 KTS
Visibility
10,000+ meters
Flight Rules
VFR
Cloud Levels
  • Few at 3,500' AGL
Temperature
14°C / 57°F
Dewpoint
10°C / 50°F
Humidity
77%
Altimeter
29.94" Hg
Pressure
1013.92 hPa
Previous

3 hours ago

LTDA 081850Z 25007KT 230V290 9999 FEW035 15/09 Q1014 NOSIG
Observed
Apr-8 @ 18:50 UTC
Wind
  • 250° at 7 KTS
Visibility
10,000+ meters
Flight Rules
VFR
Cloud Levels
  • Few at 3,500' AGL
Temperature
15°C / 59°F
Dewpoint
C / 48°F
Humidity
68%
Altimeter
29.94" Hg
Pressure
1013.92 hPa